Time;durP1;ratioP1;P1;durP2;ratioP2;P2;SDS_P1;SDS_P2;PMS_P1;PMS_P2;Temp;Humidity;BMP_temperature;BMP_pressure;BME280_temperature;BME280_humidity;BME280_pressure;Samples;Min_cycle;Max_cycle;Signal;HPM_P1;HPM_P2
2021/06/24 00:00:14;;;;;;;3.08;1.17;;;;;;;;;;1426977;41;20412;-83
2021/06/24 00:01:16;;;;;;;5.15;1.60;;;;;;;;;;1426106;41;20669;-83
2021/06/24 00:02:19;;;;;;;5.28;1.52;;;;;;;;;;1426129;41;20851;-82
2021/06/24 00:03:25;;;;;;;6.20;1.20;;;;;;;;;;1426232;41;20440;-83
2021/06/24 00:04:29;;;;;;;5.40;1.30;;;;;;;;;;1434084;41;20428;-82
2021/06/24 00:05:31;;;;;;;2.70;1.20;;;;;;;;;;1430630;41;20470;-83
2021/06/24 00:06:34;;;;;;;7.22;1.98;;;;;;;;;;1433236;41;20425;-83
2021/06/24 00:07:36;;;;;;;3.60;1.45;;;;;;;;;;1429631;41;20430;-84
2021/06/24 00:08:38;;;;;;;2.92;1.35;;;;;;;;;;1425974;41;20428;-83
2021/06/24 00:09:40;;;;;;;5.55;1.60;;;;;;;;;;1425938;41;20436;-83
2021/06/24 00:10:43;;;;;;;5.55;1.50;;;;;;;;;;1429401;41;21033;-82
2021/06/24 00:11:45;;;;;;;5.88;1.30;;;;;;;;;;1425802;41;20423;-83
2021/06/24 00:12:46;;;;;;;6.28;1.55;;;;;;;;;;1425824;41;20582;-82
2021/06/24 00:13:48;;;;;;;4.18;1.25;;;;;;;;;;1422169;41;20441;-82
2021/06/24 00:14:50;;;;;;;3.40;1.27;;;;;;;;;;1429658;41;20438;-82
2021/06/24 00:15:53;;;;;;;6.55;1.40;;;;;;;;;;1432259;41;20418;-82
2021/06/24 00:16:55;;;;;;;4.07;1.23;;;;;;;;;;1433745;41;20417;-83
2021/06/24 00:17:57;;;;;;;6.00;1.77;;;;;;;;;;1426441;41;20455;-83
2021/06/24 00:18:58;;;;;;;3.58;1.55;;;;;;;;;;1425690;41;20440;-83
2021/06/24 00:20:00;;;;;;;5.90;1.85;;;;;;;;;;1430041;41;20668;-83
2021/06/24 00:21:03;;;;;;;2.83;1.13;;;;;;;;;;1426181;41;20738;-83
2021/06/24 00:22:04;;;;;;;6.30;1.50;;;;;;;;;;1426053;41;20879;-83
2021/06/24 00:23:07;;;;;;;3.47;1.35;;;;;;;;;;1426371;41;20543;-82
2021/06/24 00:24:09;;;;;;;4.93;1.80;;;;;;;;;;1430679;41;20466;-83
2021/06/24 00:25:11;;;;;;;3.05;1.50;;;;;;;;;;1430543;41;20495;-82
2021/06/24 00:26:13;;;;;;;7.28;2.22;;;;;;;;;;1434027;41;20476;-83
2021/06/24 00:27:14;;;;;;;3.97;1.77;;;;;;;;;;1433971;41;20428;-83
2021/06/24 00:28:16;;;;;;;4.35;1.50;;;;;;;;;;1427852;41;20424;-83
2021/06/24 00:29:18;;;;;;;6.63;1.25;;;;;;;;;;1426564;41;20421;-83
2021/06/24 00:30:20;;;;;;;3.80;1.17;;;;;;;;;;1431764;41;20442;-84
2021/06/24 00:31:22;;;;;;;3.80;1.55;;;;;;;;;;1430342;41;20427;-84
2021/06/24 00:32:24;;;;;;;4.00;1.35;;;;;;;;;;1438970;41;20416;-85
2021/06/24 00:33:26;;;;;;;3.45;1.13;;;;;;;;;;1435131;41;20418;-84
2021/06/24 00:34:27;;;;;;;5.53;1.70;;;;;;;;;;1435931;41;20422;-84
2021/06/24 00:35:29;;;;;;;4.75;1.38;;;;;;;;;;1435056;41;20435;-83
2021/06/24 00:36:31;;;;;;;5.13;1.48;;;;;;;;;;1435232;41;20430;-83
2021/06/24 00:37:35;;;;;;;3.70;1.20;;;;;;;;;;1435380;41;20435;-83
2021/06/24 00:38:36;;;;;;;2.50;0.98;;;;;;;;;;1435218;41;20779;-83
2021/06/24 00:39:38;;;;;;;4.53;1.10;;;;;;;;;;1430760;41;20513;-83
2021/06/24 00:40:41;;;;;;;4.47;1.50;;;;;;;;;;1428505;41;20442;-82
2021/06/24 00:41:44;;;;;;;2.92;1.23;;;;;;;;;;1429202;41;20446;-83
2021/06/24 00:42:46;;;;;;;3.15;1.20;;;;;;;;;;1436122;41;20442;-82
2021/06/24 00:43:47;;;;;;;7.15;1.83;;;;;;;;;;1435041;41;20496;-82
2021/06/24 00:44:50;;;;;;;3.40;1.42;;;;;;;;;;1429354;41;20428;-82
2021/06/24 00:45:52;;;;;;;4.05;1.58;;;;;;;;;;1428260;41;20495;-82
2021/06/24 00:46:54;;;;;;;5.70;1.48;;;;;;;;;;1428562;41;20420;-82
2021/06/24 00:47:56;;;;;;;4.40;1.40;;;;;;;;;;1423834;41;20688;-82
2021/06/24 00:48:58;;;;;;;4.38;1.83;;;;;;;;;;1430996;41;20423;-82
2021/06/24 00:50:00;;;;;;;3.40;1.30;;;;;;;;;;1431197;41;20710;-82
2021/06/24 00:51:02;;;;;;;4.50;1.85;;;;;;;;;;1427226;41;20436;-82
2021/06/24 00:52:04;;;;;;;3.97;1.45;;;;;;;;;;1427246;41;20507;-83
2021/06/24 00:53:05;;;;;;;3.88;1.63;;;;;;;;;;1431240;41;20529;-82
2021/06/24 00:54:07;;;;;;;5.43;1.83;;;;;;;;;;1430531;41;20422;-82
2021/06/24 00:55:10;;;;;;;4.43;1.60;;;;;;;;;;1430220;41;20544;-84
2021/06/24 00:56:25;;;;;;;5.47;1.45;;;;;;;;;;1430484;41;20469;-83
2021/06/24 00:57:28;;;;;;;5.25;1.42;;;;;;;;;;1430872;41;20435;-83
2021/06/24 00:58:30;;;;;;;3.40;1.45;;;;;;;;;;1430603;41;20488;-83
2021/06/24 00:59:36;;;;;;;5.10;1.38;;;;;;;;;;1428277;41;20469;-84
2021/06/24 01:00:38;;;;;;;7.25;1.50;;;;;;;;;;1435587;41;20882;-83
2021/06/24 01:01:40;;;;;;;5.30;1.67;;;;;;;;;;1432181;41;20459;-83
2021/06/24 01:02:42;;;;;;;2.75;1.20;;;;;;;;;;1433359;41;20434;-84
2021/06/24 01:03:43;;;;;;;4.05;1.40;;;;;;;;;;1434464;41;20437;-83
2021/06/24 01:04:46;;;;;;;4.47;1.23;;;;;;;;;;1428472;41;20524;-83
2021/06/24 01:05:48;;;;;;;2.28;1.20;;;;;;;;;;1423917;41;20454;-83
2021/06/24 01:06:52;;;;;;;3.45;1.45;;;;;;;;;;1430324;41;21129;-83
2021/06/24 01:07:53;;;;;;;6.00;1.30;;;;;;;;;;1431990;41;20501;-83
2021/06/24 01:08:55;;;;;;;4.53;1.58;;;;;;;;;;1427970;41;20480;-83
2021/06/24 01:09:57;;;;;;;2.15;1.33;;;;;;;;;;1427917;41;20425;-83
2021/06/24 01:10:59;;;;;;;5.50;1.70;;;;;;;;;;1433387;41;20426;-82
2021/06/24 01:12:02;;;;;;;3.85;1.65;;;;;;;;;;1438339;41;20453;-82
2021/06/24 01:13:05;;;;;;;4.50;1.48;;;;;;;;;;1439229;41;20437;-82
2021/06/24 01:14:08;;;;;;;5.75;1.55;;;;;;;;;;1437903;41;20422;-82
2021/06/24 01:15:10;;;;;;;4.32;1.58;;;;;;;;;;1435075;41;20474;-81
2021/06/24 01:16:12;;;;;;;5.90;1.92;;;;;;;;;;1435076;41;20474;-83
2021/06/24 01:17:14;;;;;;;3.88;1.48;;;;;;;;;;1435204;41;20500;-82
2021/06/24 01:18:16;;;;;;;3.20;1.60;;;;;;;;;;1432917;41;20535;-82
2021/06/24 01:19:18;;;;;;;3.20;1.90;;;;;;;;;;1437075;41;20963;-82
2021/06/24 01:20:25;;;;;;;4.57;1.85;;;;;;;;;;1432518;41;20430;-83
2021/06/24 01:21:27;;;;;;;4.72;1.70;;;;;;;;;;1432506;41;21011;-82
2021/06/24 01:22:29;;;;;;;4.00;1.65;;;;;;;;;;1436138;41;20424;-83
2021/06/24 01:23:42;;;;;;;5.88;1.70;;;;;;;;;;1436175;41;20455;-82
2021/06/24 01:24:44;;;;;;;4.35;1.77;;;;;;;;;;1434961;41;20405;-83
2021/06/24 01:25:45;;;;;;;2.45;1.40;;;;;;;;;;1430663;41;20442;-83
2021/06/24 01:26:47;;;;;;;2.67;1.52;;;;;;;;;;1427316;41;20826;-82
2021/06/24 01:27:57;;;;;;;6.32;2.10;;;;;;;;;;1427154;41;20774;-82
2021/06/24 01:28:58;;;;;;;3.15;1.40;;;;;;;;;;1431221;41;20465;-82
2021/06/24 01:30:00;;;;;;;5.00;1.73;;;;;;;;;;1426818;41;20490;-83
2021/06/24 01:31:02;;;;;;;5.32;1.70;;;;;;;;;;1427626;41;20436;-83
2021/06/24 01:32:05;;;;;;;3.60;1.60;;;;;;;;;;1430193;41;20733;-83
2021/06/24 01:33:08;;;;;;;4.43;1.55;;;;;;;;;;1430345;41;20596;-83
2021/06/24 01:34:12;;;;;;;6.38;2.17;;;;;;;;;;1430123;41;20460;-83
2021/06/24 01:35:13;;;;;;;1.77;1.10;;;;;;;;;;1430392;41;20441;-83
2021/06/24 01:36:15;;;;;;;4.22;1.58;;;;;;;;;;1425922;41;20428;-83
2021/06/24 01:37:17;;;;;;;3.35;1.58;;;;;;;;;;1422636;41;20454;-82
2021/06/24 01:38:19;;;;;;;2.42;1.60;;;;;;;;;;1430109;41;20426;-82
2021/06/24 01:39:20;;;;;;;3.22;1.38;;;;;;;;;;1430261;41;20888;-82
2021/06/24 01:40:22;;;;;;;5.47;1.30;;;;;;;;;;1429533;41;20693;-83
2021/06/24 01:41:24;;;;;;;4.15;1.70;;;;;;;;;;1430001;41;20502;-84
2021/06/24 01:42:29;;;;;;;5.95;2.28;;;;;;;;;;1426317;41;20428;-84
2021/06/24 01:43:30;;;;;;;4.70;2.13;;;;;;;;;;1429129;41;20426;-82
2021/06/24 01:44:36;;;;;;;4.05;1.48;;;;;;;;;;1426198;41;20479;-82
2021/06/24 01:45:45;;;;;;;8.82;1.85;;;;;;;;;;1426130;41;20451;-83
2021/06/24 01:46:47;;;;;;;6.88;1.80;;;;;;;;;;1426856;41;20432;-83
2021/06/24 01:47:50;;;;;;;4.47;1.60;;;;;;;;;;1430103;41;20463;-83
2021/06/24 01:48:51;;;;;;;3.92;1.23;;;;;;;;;;1426467;41;20436;-83
2021/06/24 01:49:53;;;;;;;4.35;1.60;;;;;;;;;;1426572;41;20550;-82
2021/06/24 01:50:57;;;;;;;5.07;1.42;;;;;;;;;;1430104;41;20434;-83
2021/06/24 01:51:59;;;;;;;4.63;1.42;;;;;;;;;;1430035;41;20528;-84
2021/06/24 01:53:01;;;;;;;7.18;2.03;;;;;;;;;;1430143;41;20415;-82
2021/06/24 01:54:02;;;;;;;9.03;1.70;;;;;;;;;;1426553;41;20601;-83
2021/06/24 01:55:04;;;;;;;13.43;1.92;;;;;;;;;;1429501;41;20471;-82
2021/06/24 01:56:07;;;;;;;7.13;1.42;;;;;;;;;;1428837;41;20945;-83
2021/06/24 01:57:13;;;;;;;3.92;1.58;;;;;;;;;;1429721;41;20454;-82
2021/06/24 01:58:19;;;;;;;5.20;1.83;;;;;;;;;;1426276;41;20444;-83
2021/06/24 01:59:21;;;;;;;6.63;1.50;;;;;;;;;;1429866;41;20462;-82
2021/06/24 02:00:23;;;;;;;2.67;1.30;;;;;;;;;;1430003;41;20438;-84
2021/06/24 02:01:25;;;;;;;3.90;1.60;;;;;;;;;;1426508;41;20424;-84
2021/06/24 02:02:27;;;;;;;4.78;1.70;;;;;;;;;;1430146;41;20554;-84
2021/06/24 02:03:34;;;;;;;3.33;1.33;;;;;;;;;;1429918;41;20482;-83
2021/06/24 02:04:35;;;;;;;6.03;1.50;;;;;;;;;;1430812;41;21230;-83
2021/06/24 02:05:37;;;;;;;9.70;1.80;;;;;;;;;;1430465;41;20502;-82
2021/06/24 02:06:38;;;;;;;2.30;1.77;;;;;;;;;;1430579;41;20418;-84
2021/06/24 02:07:42;;;;;;;2.15;1.55;;;;;;;;;;1432742;41;20508;-83
2021/06/24 02:08:44;;;;;;;7.37;1.70;;;;;;;;;;1433946;41;20458;-83
2021/06/24 02:09:45;;;;;;;2.50;1.67;;;;;;;;;;1430031;41;20455;-82
2021/06/24 02:10:47;;;;;;;8.45;2.15;;;;;;;;;;1426547;41;20491;-83
2021/06/24 02:11:53;;;;;;;4.50;1.65;;;;;;;;;;1426150;41;20476;-83
2021/06/24 02:12:56;;;;;;;6.55;1.88;;;;;;;;;;1428351;41;20420;-83
2021/06/24 02:13:57;;;;;;;5.10;1.60;;;;;;;;;;1429602;41;20429;-83
2021/06/24 02:14:59;;;;;;;5.90;1.60;;;;;;;;;;1426288;41;20420;-84
2021/06/24 02:16:01;;;;;;;3.28;1.70;;;;;;;;;;1418674;41;20818;-83
2021/06/24 02:17:09;;;;;;;3.08;1.48;;;;;;;;;;1422464;41;20500;-84
2021/06/24 02:18:10;;;;;;;8.48;1.60;;;;;;;;;;1429995;41;20951;-83
2021/06/24 02:19:12;;;;;;;4.18;1.40;;;;;;;;;;1429838;41;21013;-83
2021/06/24 02:20:15;;;;;;;3.67;1.60;;;;;;;;;;1429336;41;20463;-83
2021/06/24 02:21:16;;;;;;;4.50;1.67;;;;;;;;;;1435006;41;20464;-83
2021/06/24 02:22:18;;;;;;;2.60;1.40;;;;;;;;;;1434674;41;20425;-83
2021/06/24 02:23:20;;;;;;;4.18;2.03;;;;;;;;;;1436484;41;20409;-83
2021/06/24 02:24:21;;;;;;;6.07;2.17;;;;;;;;;;1437231;41;20887;-84
2021/06/24 02:25:23;;;;;;;4.60;1.77;;;;;;;;;;1434551;41;20429;-84
2021/06/24 02:26:26;;;;;;;4.95;1.70;;;;;;;;;;1431065;41;20434;-83
2021/06/24 02:27:28;;;;;;;6.78;1.60;;;;;;;;;;1430520;41;20426;-84
2021/06/24 02:28:29;;;;;;;6.40;2.22;;;;;;;;;;1426402;41;20438;-83
2021/06/24 02:29:31;;;;;;;5.18;1.90;;;;;;;;;;1426644;41;20543;-83
2021/06/24 02:30:33;;;;;;;5.18;2.17;;;;;;;;;;1429822;41;20458;-82
2021/06/24 02:31:35;;;;;;;5.20;1.88;;;;;;;;;;1422718;41;20434;-82
2021/06/24 02:32:37;;;;;;;5.05;1.75;;;;;;;;;;1421755;41;20422;-82
2021/06/24 02:33:39;;;;;;;7.25;2.38;;;;;;;;;;1430230;41;20515;-83
2021/06/24 02:34:42;;;;;;;4.18;2.10;;;;;;;;;;1429942;41;20419;-83
2021/06/24 02:35:58;;;;;;;6.90;2.42;;;;;;;;;;1426094;41;21147;-83
2021/06/24 02:37:01;;;;;;;4.78;1.60;;;;;;;;;;1425689;41;20436;-83
2021/06/24 02:38:08;;;;;;;7.00;2.95;;;;;;;;;;1429739;41;20548;-83
2021/06/24 02:39:09;;;;;;;6.45;2.30;;;;;;;;;;1426243;41;20417;-83
2021/06/24 02:40:14;;;;;;;4.28;2.10;;;;;;;;;;1418515;41;20446;-81
2021/06/24 02:41:16;;;;;;;6.70;2.53;;;;;;;;;;1419124;41;20431;-83
2021/06/24 02:42:19;;;;;;;5.95;2.40;;;;;;;;;;1426137;41;20436;-83
2021/06/24 02:43:20;;;;;;;4.85;2.45;;;;;;;;;;1425861;41;20480;-83
2021/06/24 02:44:22;;;;;;;3.05;1.80;;;;;;;;;;1432774;41;20443;-83
2021/06/24 02:45:23;;;;;;;5.78;2.45;;;;;;;;;;1425262;41;21123;-83
2021/06/24 02:46:25;;;;;;;6.65;2.20;;;;;;;;;;1426571;41;20425;-84
2021/06/24 02:47:28;;;;;;;5.22;2.17;;;;;;;;;;1430120;41;20422;-85
2021/06/24 02:48:30;;;;;;;7.40;2.58;;;;;;;;;;1426887;41;20409;-83
2021/06/24 02:49:32;;;;;;;7.78;2.67;;;;;;;;;;1424826;41;20491;-82
2021/06/24 02:50:34;;;;;;;4.88;2.38;;;;;;;;;;1422135;41;20884;-82
2021/06/24 02:51:35;;;;;;;4.60;2.53;;;;;;;;;;1425987;41;20999;-84
2021/06/24 02:52:37;;;;;;;4.05;2.25;;;;;;;;;;1429925;41;20824;-82
2021/06/24 02:53:39;;;;;;;5.53;2.10;;;;;;;;;;1425651;41;20466;-82
2021/06/24 02:54:40;;;;;;;5.32;2.13;;;;;;;;;;1425846;41;20428;-83
2021/06/24 02:55:43;;;;;;;10.52;2.72;;;;;;;;;;1425984;41;20420;-82
2021/06/24 02:56:45;;;;;;;6.88;2.47;;;;;;;;;;1426519;41;20614;-82
2021/06/24 02:57:48;;;;;;;4.80;2.25;;;;;;;;;;1430131;41;20718;-82
2021/06/24 02:58:50;;;;;;;8.27;2.35;;;;;;;;;;1433745;41;20443;-83
2021/06/24 02:59:51;;;;;;;7.60;2.90;;;;;;;;;;1433876;41;20437;-82
2021/06/24 03:00:53;;;;;;;9.07;2.92;;;;;;;;;;1426310;41;20420;-83
2021/06/24 03:01:55;;;;;;;8.30;2.45;;;;;;;;;;1422730;41;20422;-82
2021/06/24 03:02:57;;;;;;;4.78;2.20;;;;;;;;;;1426264;41;20439;-83
2021/06/24 03:03:58;;;;;;;4.63;2.58;;;;;;;;;;1430441;41;20434;-83
2021/06/24 03:05:00;;;;;;;7.63;2.75;;;;;;;;;;1430608;41;20430;-83
2021/06/24 03:06:02;;;;;;;4.85;2.53;;;;;;;;;;1431304;41;20438;-82
2021/06/24 03:07:04;;;;;;;6.13;2.78;;;;;;;;;;1430678;41;20418;-83
2021/06/24 03:08:06;;;;;;;6.43;2.90;;;;;;;;;;1431027;41;20498;-82
2021/06/24 03:09:08;;;;;;;5.80;2.90;;;;;;;;;;1430756;41;20550;-82
2021/06/24 03:10:10;;;;;;;3.90;3.05;;;;;;;;;;1429825;41;20437;-84
2021/06/24 03:11:18;;;;;;;6.18;3.38;;;;;;;;;;1434532;41;20458;-83
2021/06/24 03:12:20;;;;;;;3.80;2.63;;;;;;;;;;1435206;41;20412;-82
2021/06/24 03:13:21;;;;;;;6.70;2.60;;;;;;;;;;1436367;41;20428;-82
2021/06/24 03:14:24;;;;;;;6.28;2.70;;;;;;;;;;1435559;41;20885;-83
2021/06/24 03:15:25;;;;;;;7.50;3.80;;;;;;;;;;1435751;41;20445;-84
2021/06/24 03:16:27;;;;;;;9.57;3.22;;;;;;;;;;1432472;41;20492;-84
2021/06/24 03:17:29;;;;;;;6.93;2.58;;;;;;;;;;1432309;41;20414;-84
2021/06/24 03:18:31;;;;;;;4.15;2.75;;;;;;;;;;1432485;41;20552;-83
2021/06/24 03:19:33;;;;;;;9.18;3.28;;;;;;;;;;1435706;41;20446;-84
2021/06/24 03:20:34;;;;;;;6.43;2.60;;;;;;;;;;1431673;41;20421;-83
2021/06/24 03:21:36;;;;;;;5.22;2.65;;;;;;;;;;1427480;41;20710;-83
2021/06/24 03:22:38;;;;;;;7.25;3.50;;;;;;;;;;1421004;41;20447;-82
2021/06/24 03:23:39;;;;;;;5.97;2.78;;;;;;;;;;1425103;41;20426;-82
2021/06/24 03:24:41;;;;;;;8.40;3.10;;;;;;;;;;1430159;41;20440;-84
2021/06/24 03:25:43;;;;;;;6.18;3.53;;;;;;;;;;1432198;41;20468;-82
2021/06/24 03:26:44;;;;;;;7.07;2.97;;;;;;;;;;1431874;41;20469;-84
2021/06/24 03:27:46;;;;;;;6.13;2.88;;;;;;;;;;1432244;41;20408;-82
2021/06/24 03:28:48;;;;;;;5.78;3.03;;;;;;;;;;1431318;41;20428;-83
2021/06/24 03:29:49;;;;;;;7.35;2.88;;;;;;;;;;1429878;41;20440;-83
2021/06/24 03:30:51;;;;;;;6.40;2.58;;;;;;;;;;1429512;41;20899;-82
2021/06/24 03:31:53;;;;;;;6.55;2.88;;;;;;;;;;1430066;41;20440;-83
2021/06/24 03:32:55;;;;;;;5.30;2.72;;;;;;;;;;1432149;41;20487;-82
2021/06/24 03:33:57;;;;;;;6.97;2.85;;;;;;;;;;1432733;41;20431;-83
2021/06/24 03:34:58;;;;;;;5.97;2.80;;;;;;;;;;1434588;41;20428;-82
2021/06/24 03:36:00;;;;;;;5.35;2.70;;;;;;;;;;1430590;41;20487;-83
2021/06/24 03:37:01;;;;;;;6.78;3.25;;;;;;;;;;1419153;41;20527;-83
2021/06/24 03:38:03;;;;;;;4.82;2.58;;;;;;;;;;1422882;41;20438;-83
2021/06/24 03:39:05;;;;;;;3.90;2.88;;;;;;;;;;1431314;41;20645;-83
2021/06/24 03:40:08;;;;;;;5.72;2.65;;;;;;;;;;1433440;41;20450;-83
2021/06/24 03:41:10;;;;;;;6.65;2.90;;;;;;;;;;1438029;41;20465;-83
2021/06/24 03:42:11;;;;;;;5.80;3.13;;;;;;;;;;1438482;41;20444;-82
2021/06/24 03:43:13;;;;;;;9.55;3.45;;;;;;;;;;1438234;41;20934;-83
2021/06/24 03:44:14;;;;;;;5.90;3.53;;;;;;;;;;1435832;41;20522;-81
2021/06/24 03:45:16;;;;;;;6.85;3.33;;;;;;;;;;1434812;41;20491;-81
2021/06/24 03:46:19;;;;;;;5.07;2.40;;;;;;;;;;1435588;41;20435;-81
2021/06/24 03:47:20;;;;;;;6.68;2.75;;;;;;;;;;1432310;41;20426;-84
2021/06/24 03:48:22;;;;;;;6.35;2.95;;;;;;;;;;1435325;41;20436;-83
2021/06/24 03:49:24;;;;;;;4.60;2.90;;;;;;;;;;1434164;41;20427;-83
2021/06/24 03:50:25;;;;;;;4.88;2.50;;;;;;;;;;1434042;41;20434;-82
2021/06/24 03:51:28;;;;;;;8.48;3.15;;;;;;;;;;1429851;41;20431;-83
2021/06/24 03:52:31;;;;;;;6.93;3.00;;;;;;;;;;1431643;41;20526;-84
2021/06/24 03:53:34;;;;;;;6.15;2.88;;;;;;;;;;1431574;41;20441;-83
2021/06/24 03:54:36;;;;;;;5.97;3.22;;;;;;;;;;1431290;41;20772;-82
2021/06/24 03:55:43;;;;;;;6.27;2.83;;;;;;;;;;1431259;41;20508;-83
2021/06/24 03:56:44;;;;;;;8.23;3.10;;;;;;;;;;1426760;41;20442;-83
2021/06/24 03:57:46;;;;;;;5.28;2.88;;;;;;;;;;1426294;41;20448;-82
2021/06/24 03:58:48;;;;;;;5.00;3.03;;;;;;;;;;1427171;41;20528;-82
2021/06/24 03:59:50;;;;;;;9.38;3.40;;;;;;;;;;1428642;41;20442;-82
2021/06/24 04:00:52;;;;;;;6.53;3.50;;;;;;;;;;1429403;41;20486;-82
2021/06/24 04:01:55;;;;;;;8.98;3.03;;;;;;;;;;1429650;41;20689;-82
2021/06/24 04:02:57;;;;;;;5.85;3.10;;;;;;;;;;1429848;41;20490;-82
2021/06/24 04:03:58;;;;;;;8.93;3.00;;;;;;;;;;1429892;41;20435;-82
2021/06/24 04:05:00;;;;;;;8.95;3.05;;;;;;;;;;1433746;41;20740;-83
2021/06/24 04:06:02;;;;;;;5.97;3.00;;;;;;;;;;1426448;41;20440;-81
2021/06/24 04:07:03;;;;;;;6.53;3.10;;;;;;;;;;1429905;41;21251;-82
2021/06/24 04:08:07;;;;;;;4.82;3.33;;;;;;;;;;1431078;41;20429;-82
2021/06/24 04:09:09;;;;;;;8.90;3.25;;;;;;;;;;1430755;41;20434;-82
2021/06/24 04:10:12;;;;;;;6.03;2.70;;;;;;;;;;1434478;41;20429;-83
2021/06/24 04:11:14;;;;;;;5.55;3.25;;;;;;;;;;1434320;41;20440;-82
2021/06/24 04:12:17;;;;;;;9.43;3.10;;;;;;;;;;1430284;41;20419;-82
2021/06/24 04:13:19;;;;;;;4.63;3.15;;;;;;;;;;1430508;41;20415;-83
2021/06/24 04:14:21;;;;;;;5.57;2.90;;;;;;;;;;1430038;41;20438;-83
2021/06/24 04:15:24;;;;;;;8.25;2.92;;;;;;;;;;1426348;41;20871;-83
2021/06/24 04:16:27;;;;;;;3.65;2.70;;;;;;;;;;1422976;41;20426;-83
2021/06/24 04:17:29;;;;;;;6.28;3.22;;;;;;;;;;1423042;41;20531;-83
2021/06/24 04:18:32;;;;;;;5.68;2.80;;;;;;;;;;1426738;41;20424;-84
2021/06/24 04:19:35;;;;;;;5.65;3.05;;;;;;;;;;1430086;41;20465;-83
2021/06/24 04:20:37;;;;;;;6.93;3.15;;;;;;;;;;1434059;41;20425;-83
2021/06/24 04:21:38;;;;;;;7.50;2.92;;;;;;;;;;1434153;41;20428;-82
2021/06/24 04:22:40;;;;;;;6.22;2.65;;;;;;;;;;1430000;41;20844;-82
2021/06/24 04:23:42;;;;;;;4.55;3.13;;;;;;;;;;1430445;41;20438;-82
2021/06/24 04:24:44;;;;;;;9.68;3.88;;;;;;;;;;1430347;41;20520;-83
2021/06/24 04:25:45;;;;;;;4.38;3.30;;;;;;;;;;1429928;41;20527;-83
2021/06/24 04:26:47;;;;;;;5.63;2.90;;;;;;;;;;1431450;41;20438;-83
2021/06/24 04:27:50;;;;;;;3.40;2.42;;;;;;;;;;1430586;41;20461;-82
2021/06/24 04:28:51;;;;;;;5.72;3.58;;;;;;;;;;1430512;41;20438;-82
2021/06/24 04:29:53;;;;;;;4.25;3.05;;;;;;;;;;1430035;41;20532;-83
2021/06/24 04:30:54;;;;;;;5.97;3.78;;;;;;;;;;1429432;41;20804;-83
2021/06/24 04:31:58;;;;;;;5.95;3.15;;;;;;;;;;1430207;41;20658;-82
2021/06/24 04:33:00;;;;;;;4.63;2.70;;;;;;;;;;1430103;41;20475;-83
2021/06/24 04:34:02;;;;;;;7.33;3.90;;;;;;;;;;1430265;41;20535;-83
2021/06/24 04:35:05;;;;;;;4.90;3.15;;;;;;;;;;1429603;41;20786;-83
2021/06/24 04:36:07;;;;;;;5.75;2.95;;;;;;;;;;1430533;41;20515;-83
2021/06/24 04:37:08;;;;;;;4.38;2.72;;;;;;;;;;1433940;41;20839;-82
2021/06/24 04:38:10;;;;;;;6.32;3.28;;;;;;;;;;1429252;41;20475;-83
2021/06/24 04:39:12;;;;;;;6.65;3.67;;;;;;;;;;1426470;41;20443;-83
2021/06/24 04:40:14;;;;;;;5.68;3.00;;;;;;;;;;1422752;41;20493;-83
2021/06/24 04:41:17;;;;;;;4.80;2.80;;;;;;;;;;1426634;41;20536;-83
2021/06/24 04:42:18;;;;;;;6.70;3.03;;;;;;;;;;1429802;41;20880;-83
2021/06/24 04:43:20;;;;;;;5.70;3.20;;;;;;;;;;1429834;41;20426;-83
2021/06/24 04:44:22;;;;;;;3.95;3.20;;;;;;;;;;1430241;41;20418;-82
2021/06/24 04:45:24;;;;;;;5.80;3.33;;;;;;;;;;1430264;41;20434;-83
2021/06/24 04:46:26;;;;;;;8.13;4.53;;;;;;;;;;1434077;41;20437;-82
2021/06/24 04:47:28;;;;;;;9.30;3.10;;;;;;;;;;1430771;41;20740;-84
2021/06/24 04:48:30;;;;;;;6.47;3.65;;;;;;;;;;1423778;41;20414;-84
2021/06/24 04:49:32;;;;;;;5.47;3.58;;;;;;;;;;1424888;41;20465;-84
2021/06/24 04:50:35;;;;;;;5.45;3.13;;;;;;;;;;1433297;41;20491;-83
2021/06/24 04:51:37;;;;;;;7.13;4.18;;;;;;;;;;1436581;41;20432;-83
2021/06/24 04:52:38;;;;;;;6.90;3.08;;;;;;;;;;1434385;41;20448;-82
2021/06/24 04:53:40;;;;;;;8.27;3.70;;;;;;;;;;1434255;41;20451;-82
2021/06/24 04:54:43;;;;;;;7.88;3.40;;;;;;;;;;1433102;41;20528;-83
2021/06/24 04:55:44;;;;;;;8.40;3.47;;;;;;;;;;1430502;41;20462;-82
2021/06/24 04:56:46;;;;;;;10.23;3.45;;;;;;;;;;1430924;41;20449;-83
2021/06/24 04:57:48;;;;;;;5.10;3.17;;;;;;;;;;1434150;41;20704;-82
2021/06/24 04:58:53;;;;;;;6.57;3.45;;;;;;;;;;1432207;41;20461;-82
2021/06/24 04:59:55;;;;;;;6.13;3.95;;;;;;;;;;1430311;41;20505;-83
2021/06/24 05:00:58;;;;;;;7.72;3.70;;;;;;;;;;1422298;41;20450;-82
2021/06/24 05:02:00;;;;;;;4.95;3.35;;;;;;;;;;1426760;41;20416;-82
2021/06/24 05:03:03;;;;;;;7.18;2.75;;;;;;;;;;1432461;41;20516;-81
2021/06/24 05:04:06;;;;;;;7.45;3.28;;;;;;;;;;1434482;41;20842;-80
2021/06/24 05:05:49;;;;;;;6.00;3.45;;;;;;;;;;1427897;41;20443;-82
2021/06/24 05:06:53;;;;;;;5.68;3.08;;;;;;;;;;1430291;41;20915;-83
2021/06/24 05:07:56;;;;;;;7.43;3.63;;;;;;;;;;1429483;41;20427;-82
2021/06/24 05:08:58;;;;;;;7.93;3.22;;;;;;;;;;1423232;41;20424;-83
2021/06/24 05:10:00;;;;;;;9.32;4.28;;;;;;;;;;1425470;41;20961;-82
2021/06/24 05:11:05;;;;;;;4.28;3.17;;;;;;;;;;1430831;41;20484;-82
2021/06/24 05:12:09;;;;;;;7.95;4.45;;;;;;;;;;1422449;41;20429;-83
2021/06/24 05:13:11;;;;;;;7.45;3.90;;;;;;;;;;1418626;41;20499;-82
2021/06/24 05:14:13;;;;;;;11.25;4.28;;;;;;;;;;1430050;41;20536;-82
2021/06/24 05:15:16;;;;;;;6.10;3.50;;;;;;;;;;1428742;41;20609;-83
2021/06/24 05:16:17;;;;;;;7.00;3.63;;;;;;;;;;1426253;41;20490;-82
2021/06/24 05:17:19;;;;;;;9.07;3.75;;;;;;;;;;1430527;41;20423;-82
2021/06/24 05:18:21;;;;;;;8.18;3.63;;;;;;;;;;1434141;41;20440;-83
2021/06/24 05:19:24;;;;;;;5.60;3.30;;;;;;;;;;1433559;41;20578;-83
2021/06/24 05:20:25;;;;;;;8.77;3.58;;;;;;;;;;1427485;41;20442;-82
2021/06/24 05:21:27;;;;;;;5.57;3.17;;;;;;;;;;1427747;41;20464;-83
2021/06/24 05:22:29;;;;;;;11.90;4.43;;;;;;;;;;1427289;41;20480;-84
2021/06/24 05:23:31;;;;;;;8.85;3.70;;;;;;;;;;1428160;41;20435;-84
2021/06/24 05:24:33;;;;;;;8.40;3.53;;;;;;;;;;1430327;41;20428;-85
2021/06/24 05:25:37;;;;;;;6.45;3.58;;;;;;;;;;1432544;41;20512;-83
2021/06/24 05:26:39;;;;;;;7.50;3.45;;;;;;;;;;1439058;41;20445;-84
2021/06/24 05:27:40;;;;;;;4.32;3.58;;;;;;;;;;1433776;41;20517;-83
2021/06/24 05:28:42;;;;;;;6.68;3.80;;;;;;;;;;1431184;41;20588;-83
2021/06/24 05:29:43;;;;;;;9.82;3.50;;;;;;;;;;1436332;41;20427;-83
2021/06/24 05:30:46;;;;;;;3.95;3.53;;;;;;;;;;1431218;41;20945;-82
2021/06/24 05:31:48;;;;;;;9.00;4.05;;;;;;;;;;1426468;41;20460;-83
2021/06/24 05:32:49;;;;;;;7.40;4.63;;;;;;;;;;1430055;41;20444;-82
2021/06/24 05:33:51;;;;;;;7.22;3.55;;;;;;;;;;1429414;41;20440;-83
2021/06/24 05:34:54;;;;;;;6.35;3.80;;;;;;;;;;1424440;41;20433;-83
2021/06/24 05:35:55;;;;;;;8.65;3.53;;;;;;;;;;1427305;41;20533;-83
2021/06/24 05:37:03;;;;;;;7.43;4.20;;;;;;;;;;1431367;41;20491;-83
2021/06/24 05:38:13;;;;;;;6.03;3.58;;;;;;;;;;1431010;41;20409;-82
2021/06/24 05:39:16;;;;;;;6.82;4.00;;;;;;;;;;1431202;41;20426;-82
2021/06/24 05:40:26;;;;;;;7.85;4.30;;;;;;;;;;1431846;41;20480;-86
2021/06/24 05:41:29;;;;;;;9.23;3.78;;;;;;;;;;1431490;41;20419;-84
2021/06/24 05:42:30;;;;;;;9.25;4.10;;;;;;;;;;1430832;41;20526;-84
2021/06/24 05:43:32;;;;;;;6.43;3.53;;;;;;;;;;1427371;41;20420;-84
2021/06/24 05:44:34;;;;;;;5.85;3.70;;;;;;;;;;1426490;41;20448;-85
2021/06/24 05:45:36;;;;;;;10.38;3.83;;;;;;;;;;1426637;41;20446;-85
2021/06/24 05:46:37;;;;;;;7.50;4.28;;;;;;;;;;1418829;41;20427;-84
2021/06/24 05:47:40;;;;;;;6.25;3.55;;;;;;;;;;1415334;41;20499;-83
2021/06/24 05:48:42;;;;;;;7.75;3.72;;;;;;;;;;1422549;41;20434;-84
2021/06/24 05:49:43;;;;;;;6.07;3.42;;;;;;;;;;1422287;41;20463;-84
2021/06/24 05:50:45;;;;;;;5.45;3.60;;;;;;;;;;1432594;41;20668;-85
2021/06/24 05:51:46;;;;;;;8.95;4.03;;;;;;;;;;1433703;41;20443;-84
2021/06/24 05:52:48;;;;;;;7.88;3.75;;;;;;;;;;1433414;41;20417;-83
2021/06/24 05:53:51;;;;;;;6.05;3.67;;;;;;;;;;1426250;41;20439;-85
2021/06/24 05:54:52;;;;;;;5.73;3.53;;;;;;;;;;1426097;41;20976;-82
2021/06/24 05:55:54;;;;;;;6.78;3.35;;;;;;;;;;1426243;41;20518;-83
2021/06/24 05:56:56;;;;;;;6.95;3.35;;;;;;;;;;1429628;41;20427;-82
2021/06/24 05:57:57;;;;;;;6.60;3.10;;;;;;;;;;1434408;41;20472;-84
2021/06/24 05:58:59;;;;;;;6.80;3.15;;;;;;;;;;1436569;41;20942;-84
2021/06/24 06:00:03;;;;;;;6.85;3.25;;;;;;;;;;1430487;41;20824;-82
2021/06/24 06:01:05;;;;;;;8.25;3.42;;;;;;;;;;1430053;41;20788;-83
2021/06/24 06:02:07;;;;;;;10.90;3.75;;;;;;;;;;1426386;41;20417;-83
2021/06/24 06:03:09;;;;;;;6.70;3.60;;;;;;;;;;1426719;41;20432;-84
2021/06/24 06:04:10;;;;;;;8.60;3.65;;;;;;;;;;1435267;41;20421;-83
2021/06/24 06:05:12;;;;;;;7.57;3.20;;;;;;;;;;1434233;41;20554;-84
2021/06/24 06:06:14;;;;;;;5.28;3.00;;;;;;;;;;1434400;41;20496;-83
2021/06/24 06:07:16;;;;;;;6.75;3.15;;;;;;;;;;1430345;41;20461;-84
2021/06/24 06:08:18;;;;;;;10.40;4.20;;;;;;;;;;1430466;41;20430;-82
2021/06/24 06:09:20;;;;;;;7.45;4.13;;;;;;;;;;1430300;41;20528;-82
2021/06/24 06:10:21;;;;;;;6.07;3.95;;;;;;;;;;1430239;41;20585;-83
2021/06/24 06:11:25;;;;;;;7.70;3.65;;;;;;;;;;1430572;41;20463;-83
2021/06/24 06:12:28;;;;;;;3.75;3.30;;;;;;;;;;1423455;41;20423;-83
2021/06/24 06:13:30;;;;;;;8.30;3.45;;;;;;;;;;1423809;41;20426;-84
2021/06/24 06:14:32;;;;;;;8.38;3.60;;;;;;;;;;1427709;41;20436;-83